sensor_id;sensor_type;location;lat;lon;timestamp;pressure;altitude;pressure_sealevel;temperature;humidity
18569;BME280;14780;48.316;-1.050;2022-12-18T00:02:25;99406.16;;;23.73;27.71
18569;BME280;14780;48.316;-1.050;2022-12-18T00:05:10;99404.56;;;23.82;28.07
18569;BME280;14780;48.316;-1.050;2022-12-18T00:07:54;99405.97;;;23.85;27.88
18569;BME280;14780;48.316;-1.050;2022-12-18T00:10:39;99398.59;;;23.85;27.93
18569;BME280;14780;48.316;-1.050;2022-12-18T00:13:24;99402.16;;;23.86;27.47
18569;BME280;14780;48.316;-1.050;2022-12-18T00:16:21;99397.53;;;23.91;27.64
18569;BME280;14780;48.316;-1.050;2022-12-18T00:19:08;99400.63;;;24.00;27.42
18569;BME280;14780;48.316;-1.050;2022-12-18T00:21:54;99395.97;;;24.00;27.71
18569;BME280;14780;48.316;-1.050;2022-12-18T00:24:39;99401.44;;;24.05;27.57
18569;BME280;14780;48.316;-1.050;2022-12-18T00:27:23;99400.94;;;24.08;27.58
18569;BME280;14780;48.316;-1.050;2022-12-18T00:30:09;99394.91;;;24.06;27.56
18569;BME280;14780;48.316;-1.050;2022-12-18T00:32:54;99404.22;;;24.10;27.47
18569;BME280;14780;48.316;-1.050;2022-12-18T00:35:38;99400.97;;;24.13;27.45
18569;BME280;14780;48.316;-1.050;2022-12-18T00:38:23;99380.75;;;24.14;27.41
18569;BME280;14780;48.316;-1.050;2022-12-18T00:41:10;99382.38;;;24.15;27.35
18569;BME280;14780;48.316;-1.050;2022-12-18T00:43:55;99391.13;;;24.17;27.14
18569;BME280;14780;48.316;-1.050;2022-12-18T00:46:40;99385.16;;;24.20;27.31
18569;BME280;14780;48.316;-1.050;2022-12-18T00:49:25;99387.59;;;24.22;27.36
18569;BME280;14780;48.316;-1.050;2022-12-18T00:52:09;99378.00;;;24.19;27.25
18569;BME280;14780;48.316;-1.050;2022-12-18T00:54:54;99380.75;;;24.19;26.99
18569;BME280;14780;48.316;-1.050;2022-12-18T00:57:39;99371.19;;;24.22;27.09
18569;BME280;14780;48.316;-1.050;2022-12-18T01:00:24;99372.56;;;24.24;27.22
18569;BME280;14780;48.316;-1.050;2022-12-18T01:03:12;99369.84;;;24.29;27.20
18569;BME280;14780;48.316;-1.050;2022-12-18T01:05:57;99378.91;;;24.35;26.89
18569;BME280;14780;48.316;-1.050;2022-12-18T01:08:42;99380.00;;;24.34;26.87
18569;BME280;14780;48.316;-1.050;2022-12-18T01:11:27;99375.31;;;24.34;27.11
18569;BME280;14780;48.316;-1.050;2022-12-18T01:14:11;99381.88;;;24.33;27.10
18569;BME280;14780;48.316;-1.050;2022-12-18T01:16:56;99378.91;;;24.35;26.99
18569;BME280;14780;48.316;-1.050;2022-12-18T01:19:41;99381.34;;;24.31;26.79
18569;BME280;14780;48.316;-1.050;2022-12-18T01:22:26;99392.31;;;24.41;26.88
18569;BME280;14780;48.316;-1.050;2022-12-18T01:25:11;99378.09;;;24.39;26.67
18569;BME280;14780;48.316;-1.050;2022-12-18T01:27:55;99382.47;;;24.45;27.05
18569;BME280;14780;48.316;-1.050;2022-12-18T01:30:40;99383.31;;;24.46;26.83
18569;BME280;14780;48.316;-1.050;2022-12-18T01:33:24;99390.16;;;24.43;26.73
18569;BME280;14780;48.316;-1.050;2022-12-18T01:36:18;99380.84;;;24.44;26.63
18569;BME280;14780;48.316;-1.050;2022-12-18T01:39:07;99374.53;;;24.44;27.03
18569;BME280;14780;48.316;-1.050;2022-12-18T01:41:53;99377.56;;;24.42;26.88
18569;BME280;14780;48.316;-1.050;2022-12-18T01:45:03;99372.06;;;24.37;26.61
18569;BME280;14780;48.316;-1.050;2022-12-18T01:47:57;99372.59;;;24.34;26.55
18569;BME280;14780;48.316;-1.050;2022-12-18T01:50:44;99378.63;;;24.41;26.74
18569;BME280;14780;48.316;-1.050;2022-12-18T01:53:29;99369.91;;;24.44;26.64
18569;BME280;14780;48.316;-1.050;2022-12-18T01:56:16;99364.44;;;24.44;26.87
18569;BME280;14780;48.316;-1.050;2022-12-18T01:59:04;99365.53;;;24.48;26.80
18569;BME280;14780;48.316;-1.050;2022-12-18T02:01:50;99350.50;;;24.51;26.70
18569;BME280;14780;48.316;-1.050;2022-12-18T02:04:35;99342.84;;;24.48;26.75
18569;BME280;14780;48.316;-1.050;2022-12-18T02:07:43;99338.47;;;24.47;26.74
18569;BME280;14780;48.316;-1.050;2022-12-18T02:10:29;99342.84;;;24.48;26.64
18569;BME280;14780;48.316;-1.050;2022-12-18T02:28:22;99349.72;;;24.55;26.50
18569;BME280;14780;48.316;-1.050;2022-12-18T02:31:11;99355.75;;;24.57;26.48
18569;BME280;14780;48.316;-1.050;2022-12-18T02:34:02;99368.03;;;24.60;26.42
18569;BME280;14780;48.316;-1.050;2022-12-18T02:36:48;99360.66;;;24.60;26.55
18569;BME280;14780;48.316;-1.050;2022-12-18T02:39:35;99368.31;;;24.63;26.60
18569;BME280;14780;48.316;-1.050;2022-12-18T02:42:21;99360.13;;;24.63;26.48
18569;BME280;14780;48.316;-1.050;2022-12-18T02:45:07;99363.94;;;24.62;26.62
18569;BME280;14780;48.316;-1.050;2022-12-18T02:47:52;99358.22;;;24.64;26.37
18569;BME280;14780;48.316;-1.050;2022-12-18T02:50:45;99353.84;;;24.63;26.30
18569;BME280;14780;48.316;-1.050;2022-12-18T02:53:41;99349.47;;;24.62;26.41
18569;BME280;14780;48.316;-1.050;2022-12-18T02:56:49;99336.03;;;24.60;26.49
18569;BME280;14780;48.316;-1.050;2022-12-18T02:59:42;99338.53;;;24.62;26.51
18569;BME280;14780;48.316;-1.050;2022-12-18T03:05:37;99332.22;;;24.61;26.35
18569;BME280;14780;48.316;-1.050;2022-12-18T03:08:31;99322.38;;;24.60;26.38
18569;BME280;14780;48.316;-1.050;2022-12-18T03:11:18;99318.00;;;24.59;26.23
18569;BME280;14780;48.316;-1.050;2022-12-18T03:14:24;99326.16;;;24.54;26.20
18569;BME280;14780;48.316;-1.050;2022-12-18T03:17:15;99318.53;;;24.56;26.20
18569;BME280;14780;48.316;-1.050;2022-12-18T03:20:10;99331.13;;;24.57;26.53
18569;BME280;14780;48.316;-1.050;2022-12-18T03:23:10;99330.03;;;24.58;26.36
18569;BME280;14780;48.316;-1.050;2022-12-18T03:25:59;99327.31;;;24.58;26.49
18569;BME280;14780;48.316;-1.050;2022-12-18T03:29:00;99325.66;;;24.57;26.33
18569;BME280;14780;48.316;-1.050;2022-12-18T03:31:51;99327.50;;;24.52;26.31
18569;BME280;14780;48.316;-1.050;2022-12-18T03:34:39;99335.19;;;24.55;26.31
18569;BME280;14780;48.316;-1.050;2022-12-18T03:37:25;99328.09;;;24.54;26.26
18569;BME280;14780;48.316;-1.050;2022-12-18T03:40:11;99328.34;;;24.52;26.10
18569;BME280;14780;48.316;-1.050;2022-12-18T03:43:05;99334.13;;;24.56;26.28
18569;BME280;14780;48.316;-1.050;2022-12-18T03:49:19;99325.59;;;24.52;26.41
18569;BME280;14780;48.316;-1.050;2022-12-18T03:52:21;99331.63;;;24.49;26.37
18569;BME280;14780;48.316;-1.050;2022-12-18T03:55:10;99342.00;;;24.47;26.41
18569;BME280;14780;48.316;-1.050;2022-12-18T03:57:55;99344.19;;;24.45;26.30
18569;BME280;14780;48.316;-1.050;2022-12-18T04:00:41;99348.03;;;24.44;26.26
18569;BME280;14780;48.316;-1.050;2022-12-18T04:03:29;99340.38;;;24.46;26.33
18569;BME280;14780;48.316;-1.050;2022-12-18T04:06:15;99348.56;;;24.46;26.14
18569;BME280;14780;48.316;-1.050;2022-12-18T04:09:01;99344.72;;;24.47;26.47
18569;BME280;14780;48.316;-1.050;2022-12-18T04:11:46;99343.09;;;24.46;26.50
18569;BME280;14780;48.316;-1.050;2022-12-18T04:14:31;99343.66;;;24.43;26.29
18569;BME280;14780;48.316;-1.050;2022-12-18T04:17:20;99355.09;;;24.40;26.28
18569;BME280;14780;48.316;-1.050;2022-12-18T04:20:06;99352.94;;;24.37;26.16
18569;BME280;14780;48.316;-1.050;2022-12-18T04:22:51;99351.28;;;24.36;26.12
18569;BME280;14780;48.316;-1.050;2022-12-18T04:25:35;99348.56;;;24.36;26.42
18569;BME280;14780;48.316;-1.050;2022-12-18T04:28:20;99354.03;;;24.36;26.26
18569;BME280;14780;48.316;-1.050;2022-12-18T04:31:05;99357.84;;;24.35;26.25
18569;BME280;14780;48.316;-1.050;2022-12-18T04:33:49;99358.91;;;24.34;26.25
18569;BME280;14780;48.316;-1.050;2022-12-18T04:36:34;99350.16;;;24.32;26.24
18569;BME280;14780;48.316;-1.050;2022-12-18T04:39:19;99349.38;;;24.32;26.23
18569;BME280;14780;48.316;-1.050;2022-12-18T04:42:03;99352.34;;;24.30;26.40
18569;BME280;14780;48.316;-1.050;2022-12-18T04:44:48;99364.38;;;24.29;26.36
18569;BME280;14780;48.316;-1.050;2022-12-18T04:47:33;99357.53;;;24.27;26.10
18569;BME280;14780;48.316;-1.050;2022-12-18T04:50:17;99360.53;;;24.25;26.28
18569;BME280;14780;48.316;-1.050;2022-12-18T04:53:02;99359.44;;;24.26;26.05
18569;BME280;14780;48.316;-1.050;2022-12-18T04:55:47;99347.41;;;24.27;26.41
18569;BME280;14780;48.316;-1.050;2022-12-18T04:58:31;99338.66;;;24.25;26.18
18569;BME280;14780;48.316;-1.050;2022-12-18T05:01:17;99350.16;;;24.22;26.13
18569;BME280;14780;48.316;-1.050;2022-12-18T05:04:03;99339.22;;;24.22;26.29
18569;BME280;14780;48.316;-1.050;2022-12-18T05:06:48;99344.41;;;24.19;26.09
18569;BME280;14780;48.316;-1.050;2022-12-18T05:09:32;99341.91;;;24.17;26.35
18569;BME280;14780;48.316;-1.050;2022-12-18T05:12:17;99351.22;;;24.16;26.33
18569;BME280;14780;48.316;-1.050;2022-12-18T05:15:01;99344.09;;;24.15;26.07
18569;BME280;14780;48.316;-1.050;2022-12-18T05:17:46;99350.13;;;24.17;26.37
18569;BME280;14780;48.316;-1.050;2022-12-18T05:20:31;99350.94;;;24.18;26.19
18569;BME280;14780;48.316;-1.050;2022-12-18T05:23:16;99355.84;;;24.16;26.37
18569;BME280;14780;48.316;-1.050;2022-12-18T05:26:03;99351.75;;;24.13;26.21
18569;BME280;14780;48.316;-1.050;2022-12-18T05:28:48;99342.97;;;24.11;26.29
18569;BME280;14780;48.316;-1.050;2022-12-18T05:31:33;99338.59;;;24.10;26.07
18569;BME280;14780;48.316;-1.050;2022-12-18T05:34:18;99332.59;;;24.08;26.11
18569;BME280;14780;48.316;-1.050;2022-12-18T05:37:02;99322.19;;;24.05;26.11
18569;BME280;14780;48.316;-1.050;2022-12-18T05:39:47;99322.19;;;24.05;26.20
18569;BME280;14780;48.316;-1.050;2022-12-18T05:42:32;99310.97;;;24.07;26.20
18569;BME280;14780;48.316;-1.050;2022-12-18T05:45:16;99293.50;;;24.08;26.07
18569;BME280;14780;48.316;-1.050;2022-12-18T05:48:01;99287.22;;;24.07;26.12
18569;BME280;14780;48.316;-1.050;2022-12-18T05:50:47;99291.84;;;24.07;26.26
18569;BME280;14780;48.316;-1.050;2022-12-18T05:53:32;99278.19;;;24.07;26.04
18569;BME280;14780;48.316;-1.050;2022-12-18T05:56:20;99278.44;;;24.05;26.00
18569;BME280;14780;48.316;-1.050;2022-12-18T05:59:05;99279.00;;;24.02;26.16
18569;BME280;14780;48.316;-1.050;2022-12-18T06:01:50;99282.28;;;23.99;26.17
18569;BME280;14780;48.316;-1.050;2022-12-18T06:04:34;99286.91;;;23.99;26.07
18569;BME280;14780;48.316;-1.050;2022-12-18T06:07:19;99281.19;;;24.00;26.02
18569;BME280;14780;48.316;-1.050;2022-12-18T06:10:04;99282.28;;;23.99;26.27
18569;BME280;14780;48.316;-1.050;2022-12-18T06:12:49;99274.88;;;24.00;26.22
18569;BME280;14780;48.316;-1.050;2022-12-18T06:15:35;99265.03;;;23.99;26.14
18569;BME280;14780;48.316;-1.050;2022-12-18T06:18:21;99261.47;;;23.98;26.12
18569;BME280;14780;48.316;-1.050;2022-12-18T06:21:05;99248.09;;;23.97;26.26
18569;BME280;14780;48.316;-1.050;2022-12-18T06:23:51;99254.91;;;23.94;25.93
18569;BME280;14780;48.316;-1.050;2022-12-18T06:26:37;99251.34;;;23.94;26.15
18569;BME280;14780;48.316;-1.050;2022-12-18T06:29:23;99253.28;;;23.93;26.24
18569;BME280;14780;48.316;-1.050;2022-12-18T06:32:08;99254.91;;;23.94;26.28
18569;BME280;14780;48.316;-1.050;2022-12-18T06:34:52;99252.72;;;23.96;26.33
18569;BME280;14780;48.316;-1.050;2022-12-18T06:37:38;99249.19;;;23.96;26.06
18569;BME280;14780;48.316;-1.050;2022-12-18T06:40:23;99249.44;;;23.94;26.27
18569;BME280;14780;48.316;-1.050;2022-12-18T06:43:07;99257.09;;;23.92;26.25
18569;BME280;14780;48.316;-1.050;2022-12-18T06:45:59;99261.75;;;23.92;26.01
18569;BME280;14780;48.316;-1.050;2022-12-18T06:48:46;99257.63;;;23.89;26.15
18569;BME280;14780;48.316;-1.050;2022-12-18T06:51:30;99258.19;;;23.86;26.13
18569;BME280;14780;48.316;-1.050;2022-12-18T06:54:15;99254.09;;;23.89;26.26
18569;BME280;14780;48.316;-1.050;2022-12-18T06:57:00;99261.19;;;23.90;26.03
18569;BME280;14780;48.316;-1.050;2022-12-18T06:59:44;99256.28;;;23.92;26.15
18569;BME280;14780;48.316;-1.050;2022-12-18T07:02:29;99248.34;;;23.90;26.20
18569;BME280;14780;48.316;-1.050;2022-12-18T07:05:14;99245.88;;;23.89;26.02
18569;BME280;14780;48.316;-1.050;2022-12-18T07:07:58;99243.41;;;23.87;26.21
18569;BME280;14780;48.316;-1.050;2022-12-18T07:10:44;99246.41;;;23.86;26.17
18569;BME280;14780;48.316;-1.050;2022-12-18T07:13:28;99246.66;;;23.84;25.97
18569;BME280;14780;48.316;-1.050;2022-12-18T07:16:18;99242.56;;;23.82;26.20
18569;BME280;14780;48.316;-1.050;2022-12-18T07:19:03;99255.38;;;23.81;25.97
18569;BME280;14780;48.316;-1.050;2022-12-18T07:21:49;99245.84;;;23.84;26.31
18569;BME280;14780;48.316;-1.050;2022-12-18T07:24:34;99242.84;;;23.85;25.96
18569;BME280;14780;48.316;-1.050;2022-12-18T07:27:19;99237.94;;;23.87;26.19
18569;BME280;14780;48.316;-1.050;2022-12-18T07:30:04;99235.47;;;23.86;26.14
18569;BME280;14780;48.316;-1.050;2022-12-18T07:32:49;99240.38;;;23.84;26.33
18569;BME280;14780;48.316;-1.050;2022-12-18T07:35:34;99238.72;;;23.83;26.26
18569;BME280;14780;48.316;-1.050;2022-12-18T07:38:19;99239.00;;;23.81;26.10
18569;BME280;14780;48.316;-1.050;2022-12-18T07:41:09;99244.44;;;23.81;25.99
18569;BME280;14780;48.316;-1.050;2022-12-18T07:43:54;99245.00;;;23.78;26.16
18569;BME280;14780;48.316;-1.050;2022-12-18T07:46:38;99242.81;;;23.80;26.19
18569;BME280;14780;48.316;-1.050;2022-12-18T07:49:23;99239.81;;;23.82;26.03
18569;BME280;14780;48.316;-1.050;2022-12-18T07:52:07;99245.28;;;23.82;26.37
18569;BME280;14780;48.316;-1.050;2022-12-18T07:54:53;99244.72;;;23.80;26.02
18569;BME280;14780;48.316;-1.050;2022-12-18T07:57:38;99244.72;;;23.80;26.26
18569;BME280;14780;48.316;-1.050;2022-12-18T08:00:23;99246.63;;;23.79;26.01
18569;BME280;14780;48.316;-1.050;2022-12-18T08:03:28;99240.91;;;23.81;26.05
18569;BME280;14780;48.316;-1.050;2022-12-18T08:06:13;99245.56;;;23.80;26.15
18569;BME280;14780;48.316;-1.050;2022-12-18T08:08:58;99247.19;;;23.81;26.28
18569;BME280;14780;48.316;-1.050;2022-12-18T08:11:43;99237.09;;;23.82;26.15
18569;BME280;14780;48.316;-1.050;2022-12-18T08:14:28;99248.88;;;23.87;26.01
18569;BME280;14780;48.316;-1.050;2022-12-18T08:17:13;99251.34;;;23.89;26.22
18569;BME280;14780;48.316;-1.050;2022-12-18T08:19:58;99240.97;;;23.91;26.21
18569;BME280;14780;48.316;-1.050;2022-12-18T08:22:42;99239.03;;;23.91;26.00
18569;BME280;14780;48.316;-1.050;2022-12-18T08:25:27;99242.31;;;23.88;26.35
18569;BME280;14780;48.316;-1.050;2022-12-18T08:28:12;99248.34;;;23.90;26.04
18569;BME280;14780;48.316;-1.050;2022-12-18T08:30:56;99248.91;;;23.92;26.16
18569;BME280;14780;48.316;-1.050;2022-12-18T08:33:41;99248.91;;;23.92;26.10
18569;BME280;14780;48.316;-1.050;2022-12-18T08:36:26;99251.38;;;23.99;26.32
18569;BME280;14780;48.316;-1.050;2022-12-18T08:39:11;99256.28;;;24.02;26.24
18569;BME280;14780;48.316;-1.050;2022-12-18T08:41:56;99254.41;;;24.07;26.09
18569;BME280;14780;48.316;-1.050;2022-12-18T08:44:59;99263.69;;;24.11;26.19
18569;BME280;14780;48.316;-1.050;2022-12-18T08:47:43;99255.53;;;24.16;26.35
18569;BME280;14780;48.316;-1.050;2022-12-18T08:50:28;99256.88;;;24.24;26.35
18569;BME280;14780;48.316;-1.050;2022-12-18T08:53:13;99250.38;;;24.35;26.28
18569;BME280;14780;48.316;-1.050;2022-12-18T08:55:59;99244.09;;;24.44;26.13
18569;BME280;14780;48.316;-1.050;2022-12-18T08:58:44;99249.84;;;24.48;26.24
18569;BME280;14780;48.316;-1.050;2022-12-18T09:01:31;99248.75;;;24.54;26.39
18569;BME280;14780;48.316;-1.050;2022-12-18T09:04:16;99246.81;;;24.54;25.73
18569;BME280;14780;48.316;-1.050;2022-12-18T09:07:01;99236.44;;;24.56;25.85
18569;BME280;14780;48.316;-1.050;2022-12-18T09:09:46;99245.22;;;24.63;26.01
18569;BME280;14780;48.316;-1.050;2022-12-18T09:12:31;99241.38;;;24.69;26.20
18569;BME280;14780;48.316;-1.050;2022-12-18T09:15:16;99229.63;;;24.79;25.89
18569;BME280;14780;48.316;-1.050;2022-12-18T09:18:01;99228.78;;;24.88;26.20
18569;BME280;14780;48.316;-1.050;2022-12-18T09:20:46;99223.31;;;24.88;25.87
18569;BME280;14780;48.316;-1.050;2022-12-18T09:23:31;99226.59;;;25.00;26.10
18569;BME280;14780;48.316;-1.050;2022-12-18T09:26:16;99224.13;;;25.04;26.09
18569;BME280;14780;48.316;-1.050;2022-12-18T09:29:03;99223.81;;;25.05;26.00
18569;BME280;14780;48.316;-1.050;2022-12-18T09:31:48;99225.75;;;25.05;25.85
18569;BME280;14780;48.316;-1.050;2022-12-18T09:34:37;99221.66;;;25.07;25.55
18569;BME280;14780;48.316;-1.050;2022-12-18T09:37:21;99223.81;;;25.05;25.58
18569;BME280;14780;48.316;-1.050;2022-12-18T09:40:12;99217.81;;;25.03;25.70
18569;BME280;14780;48.316;-1.050;2022-12-18T09:43:00;99216.44;;;25.06;25.76
18569;BME280;14780;48.316;-1.050;2022-12-18T09:45:55;99226.28;;;25.12;25.74
18569;BME280;14780;48.316;-1.050;2022-12-18T09:48:46;99216.97;;;25.18;25.83
18569;BME280;14780;48.316;-1.050;2022-12-18T09:51:50;99222.72;;;25.21;25.86
18569;BME280;14780;48.316;-1.050;2022-12-18T09:54:39;99221.91;;;25.26;25.90
18569;BME280;14780;48.316;-1.050;2022-12-18T09:57:25;99212.88;;;25.30;25.78
18569;BME280;14780;48.316;-1.050;2022-12-18T10:00:22;99212.56;;;25.37;26.13
18569;BME280;14780;48.316;-1.050;2022-12-18T10:03:12;99215.03;;;25.38;26.09
18569;BME280;14780;48.316;-1.050;2022-12-18T10:06:08;99218.88;;;25.37;25.86
18569;BME280;14780;48.316;-1.050;2022-12-18T10:14:57;99226.56;;;25.30;26.01
18569;BME280;14780;48.316;-1.050;2022-12-18T10:20:52;99212.88;;;25.25;25.93
18569;BME280;14780;48.316;-1.050;2022-12-18T10:24:24;99230.66;;;25.23;25.76
18569;BME280;14780;48.316;-1.050;2022-12-18T10:27:21;99235.31;;;25.17;25.87
18569;BME280;14780;48.316;-1.050;2022-12-18T10:30:15;99237.78;;;25.14;26.04
18569;BME280;14780;48.316;-1.050;2022-12-18T10:33:03;99242.72;;;25.12;26.05
18569;BME280;14780;48.316;-1.050;2022-12-18T10:35:50;99241.31;;;25.19;26.01
18569;BME280;14780;48.316;-1.050;2022-12-18T10:38:35;99234.75;;;25.20;26.07
18569;BME280;14780;48.316;-1.050;2022-12-18T10:44:18;99220.25;;;25.30;26.27
18569;BME280;14780;48.316;-1.050;2022-12-18T10:47:06;99212.88;;;25.25;26.19
18569;BME280;14780;48.316;-1.050;2022-12-18T10:49:55;99206.84;;;25.23;26.19
18569;BME280;14780;48.316;-1.050;2022-12-18T10:52:41;99202.47;;;25.22;26.30
18569;BME280;14780;48.316;-1.050;2022-12-18T10:55:38;99198.63;;;25.13;26.13
18569;BME280;14780;48.316;-1.050;2022-12-18T11:01:17;99179.47;;;25.08;26.04
18569;BME280;14780;48.316;-1.050;2022-12-18T11:04:08;99186.59;;;24.99;25.89
18569;BME280;14780;48.316;-1.050;2022-12-18T11:07:00;99155.16;;;24.92;25.89
18569;BME280;14780;48.316;-1.050;2022-12-18T11:10:00;99160.38;;;24.83;25.83
18569;BME280;14780;48.316;-1.050;2022-12-18T11:12:45;99139.31;;;24.79;25.67
18569;BME280;14780;48.316;-1.050;2022-12-18T11:15:31;99133.31;;;24.72;25.93
18569;BME280;14780;48.316;-1.050;2022-12-18T11:18:31;99143.44;;;24.66;25.89
18569;BME280;14780;48.316;-1.050;2022-12-18T11:21:18;99138.25;;;24.70;25.64
18569;BME280;14780;48.316;-1.050;2022-12-18T11:24:03;99128.94;;;24.76;26.07
18569;BME280;14780;48.316;-1.050;2022-12-18T11:26:49;99130.56;;;24.82;26.04
18569;BME280;14780;48.316;-1.050;2022-12-18T11:29:37;99134.63;;;24.89;26.06
18569;BME280;14780;48.316;-1.050;2022-12-18T11:32:34;99138.47;;;24.93;25.67
18569;BME280;14780;48.316;-1.050;2022-12-18T11:35:40;99131.88;;;24.94;25.80
18569;BME280;14780;48.316;-1.050;2022-12-18T11:38:41;99128.06;;;24.95;26.09
18569;BME280;14780;48.316;-1.050;2022-12-18T11:41:56;99138.72;;;24.97;25.93
18569;BME280;14780;48.316;-1.050;2022-12-18T11:44:59;99130.47;;;25.02;25.72
18569;BME280;14780;48.316;-1.050;2022-12-18T11:48:04;99131.31;;;25.02;25.64
18569;BME280;14780;48.316;-1.050;2022-12-18T11:50:55;99127.47;;;25.03;25.78
18569;BME280;14780;48.316;-1.050;2022-12-18T11:53:40;99118.16;;;25.04;26.00
18569;BME280;14780;48.316;-1.050;2022-12-18T11:56:36;99117.06;;;25.05;26.01
18569;BME280;14780;48.316;-1.050;2022-12-18T12:05:41;99108.31;;;25.03;25.86
18569;BME280;14780;48.316;-1.050;2022-12-18T12:14:49;99099.84;;;25.05;25.96
18569;BME280;14780;48.316;-1.050;2022-12-18T12:17:38;99097.09;;;25.05;26.09
18569;BME280;14780;48.316;-1.050;2022-12-18T12:33:25;99065.63;;;24.92;26.26
18569;BME280;14780;48.316;-1.050;2022-12-18T12:39:20;99035.53;;;24.92;26.34
18569;BME280;14780;48.316;-1.050;2022-12-18T12:42:24;99031.41;;;24.95;26.40
18569;BME280;14780;48.316;-1.050;2022-12-18T12:45:49;99034.47;;;24.93;26.07
18569;BME280;14780;48.316;-1.050;2022-12-18T12:48:36;99029.53;;;24.90;26.20
18569;BME280;14780;48.316;-1.050;2022-12-18T12:51:39;99036.94;;;24.90;26.12
18569;BME280;14780;48.316;-1.050;2022-12-18T12:54:26;99030.91;;;24.88;26.15
18569;BME280;14780;48.316;-1.050;2022-12-18T12:57:22;99052.53;;;24.84;26.18
18569;BME280;14780;48.316;-1.050;2022-12-18T13:00:16;99053.09;;;24.81;26.38
18569;BME280;14780;48.316;-1.050;2022-12-18T13:13:08;99010.16;;;24.77;26.85
18569;BME280;14780;48.316;-1.050;2022-12-18T13:16:07;99002.50;;;24.74;26.68
18569;BME280;14780;48.316;-1.050;2022-12-18T13:18:54;99012.63;;;24.73;27.11
18569;BME280;14780;48.316;-1.050;2022-12-18T13:21:41;99019.75;;;24.74;27.15
18569;BME280;14780;48.316;-1.050;2022-12-18T13:24:27;99011.78;;;24.78;27.58
18569;BME280;14780;48.316;-1.050;2022-12-18T13:44:50;98975.22;;;24.54;27.20
18569;BME280;14780;48.316;-1.050;2022-12-18T13:47:37;98978.78;;;24.49;26.90
18569;BME280;14780;48.316;-1.050;2022-12-18T13:50:26;98978.53;;;24.46;27.17
18569;BME280;14780;48.316;-1.050;2022-12-18T13:53:44;98973.84;;;24.41;26.93
18569;BME280;14780;48.316;-1.050;2022-12-18T13:56:30;98981.00;;;24.37;26.99
18569;BME280;14780;48.316;-1.050;2022-12-18T13:59:19;98982.09;;;24.36;26.90
18569;BME280;14780;48.316;-1.050;2022-12-18T14:02:16;98975.53;;;24.32;27.46
18569;BME280;14780;48.316;-1.050;2022-12-18T14:05:01;98983.75;;;24.32;27.59
18569;BME280;14780;48.316;-1.050;2022-12-18T14:07:46;98978.84;;;24.29;27.41
18569;BME280;14780;48.316;-1.050;2022-12-18T14:10:32;98975.53;;;24.27;27.07
18569;BME280;14780;48.316;-1.050;2022-12-18T14:13:35;98976.63;;;24.26;26.73
18569;BME280;14780;48.316;-1.050;2022-12-18T14:16:22;98978.56;;;24.26;27.55
18569;BME280;14780;48.316;-1.050;2022-12-18T14:19:14;98974.47;;;24.23;27.38
18569;BME280;14780;48.316;-1.050;2022-12-18T14:22:01;98965.75;;;24.21;27.15
18569;BME280;14780;48.316;-1.050;2022-12-18T14:24:45;98969.84;;;24.19;27.32
18569;BME280;14780;48.316;-1.050;2022-12-18T14:27:31;98960.00;;;24.18;27.32
18569;BME280;14780;48.316;-1.050;2022-12-18T14:30:26;98960.28;;;24.16;27.30
18569;BME280;14780;48.316;-1.050;2022-12-18T14:33:14;98963.84;;;24.12;27.29
18569;BME280;14780;48.316;-1.050;2022-12-18T14:36:04;98965.22;;;24.14;27.53
18569;BME280;14780;48.316;-1.050;2022-12-18T14:38:54;98960.28;;;24.11;27.52
18569;BME280;14780;48.316;-1.050;2022-12-18T14:41:40;98961.91;;;24.12;27.91
18569;BME280;14780;48.316;-1.050;2022-12-18T14:44:25;98950.44;;;24.15;28.10
18569;BME280;14780;48.316;-1.050;2022-12-18T14:47:17;98951.50;;;24.19;28.08
18569;BME280;14780;48.316;-1.050;2022-12-18T14:50:02;98940.03;;;24.17;27.78
18569;BME280;14780;48.316;-1.050;2022-12-18T14:52:47;98942.25;;;24.15;28.23
18569;BME280;14780;48.316;-1.050;2022-12-18T14:55:32;98941.41;;;24.15;27.93
18569;BME280;14780;48.316;-1.050;2022-12-18T14:58:18;98943.34;;;24.14;28.38
18569;BME280;14780;48.316;-1.050;2022-12-18T15:01:03;98944.44;;;24.13;28.35
18569;BME280;14780;48.316;-1.050;2022-12-18T15:03:48;98942.78;;;24.12;28.62
18569;BME280;14780;48.316;-1.050;2022-12-18T15:06:37;98946.34;;;24.13;28.15
18569;BME280;14780;48.316;-1.050;2022-12-18T15:09:27;98947.44;;;24.12;28.05
18569;BME280;14780;48.316;-1.050;2022-12-18T15:12:37;98930.50;;;24.10;28.14
18569;BME280;14780;48.316;-1.050;2022-12-18T15:18:32;98925.84;;;24.05;28.07
18569;BME280;14780;48.316;-1.050;2022-12-18T15:21:20;98934.88;;;24.06;28.48
18569;BME280;14780;48.316;-1.050;2022-12-18T15:24:13;98928.56;;;24.05;28.57
18569;BME280;14780;48.316;-1.050;2022-12-18T15:27:01;98917.94;;;24.04;28.63
18569;BME280;14780;48.316;-1.050;2022-12-18T15:30:15;98901.53;;;24.04;28.23
18569;BME280;14780;48.316;-1.050;2022-12-18T15:33:24;98898.56;;;23.95;28.84
18569;BME280;14780;48.316;-1.050;2022-12-18T15:36:12;98905.66;;;23.91;29.09
18569;BME280;14780;48.316;-1.050;2022-12-18T15:38:57;98922.63;;;23.93;28.73
18569;BME280;14780;48.316;-1.050;2022-12-18T15:41:43;98924.78;;;23.96;28.83
18569;BME280;14780;48.316;-1.050;2022-12-18T15:44:48;98931.88;;;23.97;28.64
18569;BME280;14780;48.316;-1.050;2022-12-18T15:47:33;98937.66;;;23.96;29.10
18569;BME280;14780;48.316;-1.050;2022-12-18T15:50:18;98945.53;;;23.97;29.04
18569;BME280;14780;48.316;-1.050;2022-12-18T15:53:02;98943.38;;;23.94;28.96
18569;BME280;14780;48.316;-1.050;2022-12-18T15:55:47;98953.78;;;23.92;29.20
18569;BME280;14780;48.316;-1.050;2022-12-18T15:58:50;98958.97;;;23.89;28.90
18569;BME280;14780;48.316;-1.050;2022-12-18T16:01:35;98972.06;;;23.92;29.19
18569;BME280;14780;48.316;-1.050;2022-12-18T16:04:21;98966.34;;;23.93;29.10
18569;BME280;14780;48.316;-1.050;2022-12-18T16:07:07;98952.66;;;23.93;29.24
18569;BME280;14780;48.316;-1.050;2022-12-18T16:09:52;98960.31;;;23.91;29.28
18569;BME280;14780;48.316;-1.050;2022-12-18T16:12:37;98945.00;;;23.90;29.06
18569;BME280;14780;48.316;-1.050;2022-12-18T16:15:22;98956.25;;;23.89;28.89
18569;BME280;14780;48.316;-1.050;2022-12-18T16:18:07;98967.16;;;23.89;28.99